Terminal Aerodrome Forecast
Issued by NWS

Current Version | Previous Version | Text Only | Print | Product List | Glossary On
Versions: 1 2 3 4 5 6 7 8 9 10 11 12 13 14 15 16 17 18 19 20 21 22 23 24 25 26 27 28 29 30 31 32 33 34 35 36 37 38 39 40 41 42 43 44 45 46 47 48 49
000
FTUS41 KRNK 300632 AAA
TAFBCB
TAF AMD
KBCB 300632Z 3007/3106 09007KT P6SM OVC025
     FM301000 11006KT 6SM BR OVC015
     FM301400 11007KT 4SM BR OVC010
     FM301900 12007KT P6SM OVC020
     FM310400 12005KT P6SM OVC010 WS020/16035KT
     FM310500 11005KT 3SM -SHRA OVC010 WS020/17035KT=

USA.gov is the U.S. government's official web portal to all federal, state and local government web resources and services.